Time;durP1;ratioP1;P1;durP2;ratioP2;P2;SDS_P1;SDS_P2;PMS_P1;PMS_P2;Temp;Humidity;BMP_temperature;BMP_pressure;BME280_temperature;BME280_humidity;BME280_pressure;Samples;Min_cycle;Max_cycle;Signal;HPM_P1;HPM_P2
2019/06/16 00:29:41;;;;;;;4;3.15;;;;;;;15.2;89.64746;95467.58;;;;
2019/06/16 00:30:42;;;;;;;4;3.15;;;;;;;15.2;89.64746;95467.58;;;;
2019/06/16 00:31:43;;;;;;;4;3.15;;;;;;;15.2;89.64746;95467.58;;;;
2019/06/16 00:32:44;;;;;;;4;3.15;;;;;;;15.2;89.64746;95467.58;;;;
2019/06/16 00:33:45;;;;;;;4;3.15;;;;;;;15.2;89.64746;95467.58;;;;
2019/06/16 00:34:46;;;;;;;4;3.15;;;;;;;15.2;89.64746;95467.58;;;;
2019/06/16 00:35:47;;;;;;;4;3.15;;;;;;;15.2;89.64746;95467.58;;;;
2019/06/16 00:36:49;;;;;;;4;3.15;;;;;;;15.2;89.64746;95467.58;;;;
2019/06/16 00:37:50;;;;;;;4;3.15;;;;;;;15.2;89.64746;95467.58;;;;
2019/06/16 00:38:51;;;;;;;4;3.15;;;;;;;15.2;89.64746;95467.58;;;;
2019/06/16 00:39:52;;;;;;;4;3.15;;;;;;;15.2;89.64746;95467.58;;;;
2019/06/16 00:40:53;;;;;;;4.2;3.55;;;;;;;15.17;90.45996;95465.36;;;;
2019/06/16 00:41:54;;;;;;;4.2;3.55;;;;;;;15.17;90.45996;95465.36;;;;
2019/06/16 00:42:55;;;;;;;4.2;3.55;;;;;;;15.17;90.45996;95465.36;;;;
2019/06/16 00:43:56;;;;;;;4.2;3.55;;;;;;;15.17;90.45996;95465.36;;;;
2019/06/16 00:44:57;;;;;;;4.2;3.55;;;;;;;15.17;90.45996;95465.36;;;;
2019/06/16 00:45:58;;;;;;;4.2;3.55;;;;;;;15.17;90.45996;95465.36;;;;
2019/06/16 00:46:59;;;;;;;4.2;3.55;;;;;;;15.17;90.45996;95465.36;;;;
2019/06/16 00:48:00;;;;;;;4.2;3.55;;;;;;;15.17;90.45996;95465.36;;;;
2019/06/16 00:49:01;;;;;;;4.2;3.55;;;;;;;15.17;90.45996;95465.36;;;;
2019/06/16 00:50:03;;;;;;;4.2;3.55;;;;;;;15.17;90.45996;95465.36;;;;
2019/06/16 00:51:04;;;;;;;4.45;4.05;;;;;;;15.22;91.20117;95474.95;;;;
2019/06/16 00:52:05;;;;;;;4.45;4.05;;;;;;;15.22;91.20117;95474.95;;;;
2019/06/16 00:53:06;;;;;;;4.45;4.05;;;;;;;15.22;91.20117;95474.95;;;;
2019/06/16 00:54:07;;;;;;;4.45;4.05;;;;;;;15.22;91.20117;95474.95;;;;
2019/06/16 00:55:08;;;;;;;4.45;4.05;;;;;;;15.22;91.20117;95474.95;;;;
2019/06/16 00:56:09;;;;;;;4.45;4.05;;;;;;;15.22;91.20117;95474.95;;;;
2019/06/16 00:57:10;;;;;;;4.45;4.05;;;;;;;15.22;91.20117;95474.95;;;;
2019/06/16 00:58:11;;;;;;;4.45;4.05;;;;;;;15.22;91.20117;95474.95;;;;
2019/06/16 00:59:12;;;;;;;4.45;4.05;;;;;;;15.22;91.20117;95474.95;;;;
2019/06/16 01:00:13;;;;;;;4.45;4.05;;;;;;;15.22;91.20117;95474.95;;;;
2019/06/16 01:01:15;;;;;;;4.45;4.05;;;;;;;15.22;91.20117;95474.95;;;;
2019/06/16 01:02:16;;;;;;;4.45;4.05;;;;;;;15.22;91.20117;95474.95;;;;
2019/06/16 01:03:17;;;;;;;4.45;4.05;;;;;;;15.22;91.20117;95474.95;;;;
2019/06/16 01:04:18;;;;;;;4.45;4.05;;;;;;;15.22;91.20117;95474.95;;;;
2019/06/16 01:05:19;;;;;;;4.45;4.05;;;;;;;15.22;91.20117;95474.95;;;;
2019/06/16 01:06:20;;;;;;;4.45;4.05;;;;;;;15.22;91.20117;95474.95;;;;
2019/06/16 01:07:22;;;;;;;4.45;4.05;;;;;;;15.22;91.20117;95474.95;;;;
2019/06/16 01:08:23;;;;;;;4.45;4.05;;;;;;;15.22;91.20117;95474.95;;;;
2019/06/16 01:09:24;;;;;;;4.45;4.05;;;;;;;15.22;91.20117;95474.95;;;;
2019/06/16 01:10:25;;;;;;;4.45;4.05;;;;;;;15.22;91.20117;95474.95;;;;
2019/06/16 01:11:26;;;;;;;4.45;4.05;;;;;;;15.22;91.20117;95474.95;;;;
2019/06/16 01:12:27;;;;;;;4.45;4.05;;;;;;;15.22;91.20117;95474.95;;;;
2019/06/16 01:13:29;;;;;;;4.45;4.05;;;;;;;15.22;91.20117;95474.95;;;;
2019/06/16 01:14:30;;;;;;;4.45;4.05;;;;;;;15.22;91.20117;95474.95;;;;
2019/06/16 01:15:31;;;;;;;4.45;4.05;;;;;;;15.22;91.20117;95474.95;;;;
2019/06/16 01:16:33;;;;;;;4.45;4.05;;;;;;;15.22;91.20117;95474.95;;;;
2019/06/16 01:17:34;;;;;;;4.45;4.05;;;;;;;15.22;91.20117;95474.95;;;;
2019/06/16 01:18:35;;;;;;;4.45;4.05;;;;;;;15.22;91.20117;95474.95;;;;
2019/06/16 01:19:36;;;;;;;4.45;4.05;;;;;;;15.22;91.20117;95474.95;;;;
2019/06/16 01:20:37;;;;;;;4.45;4.05;;;;;;;15.22;91.20117;95474.95;;;;
2019/06/16 01:21:38;;;;;;;4.45;4.05;;;;;;;15.22;91.20117;95474.95;;;;
2019/06/16 01:22:39;;;;;;;4.45;4.05;;;;;;;15.22;91.20117;95474.95;;;;
2019/06/16 01:23:40;;;;;;;4.45;4.05;;;;;;;15.22;91.20117;95474.95;;;;
2019/06/16 01:24:42;;;;;;;4.45;4.05;;;;;;;15.22;91.20117;95474.95;;;;
2019/06/16 01:25:43;;;;;;;4.45;4.05;;;;;;;15.22;91.20117;95474.95;;;;
2019/06/16 01:26:44;;;;;;;4.45;4.05;;;;;;;15.22;91.20117;95474.95;;;;
2019/06/16 01:27:45;;;;;;;4.45;4.05;;;;;;;15.22;91.20117;95474.95;;;;
2019/06/16 01:28:46;;;;;;;4.45;4.05;;;;;;;15.22;91.20117;95474.95;;;;
2019/06/16 01:29:47;;;;;;;4.45;4.05;;;;;;;15.22;91.20117;95474.95;;;;
2019/06/16 01:30:49;;;;;;;4.45;4.05;;;;;;;15.22;91.20117;95474.95;;;;
2019/06/16 01:31:50;;;;;;;4.45;4.05;;;;;;;15.22;91.20117;95474.95;;;;
2019/06/16 01:32:52;;;;;;;4.45;4.05;;;;;;;15.22;91.20117;95474.95;;;;
2019/06/16 01:33:53;;;;;;;7.15;6.05;;;;;;;15.19;93.03711;95483.48;;;;
2019/06/16 01:34:54;;;;;;;7.15;6.05;;;;;;;15.19;93.03711;95483.48;;;;
2019/06/16 01:35:55;;;;;;;7.15;6.05;;;;;;;15.19;93.03711;95483.48;;;;
2019/06/16 01:36:57;;;;;;;7.15;6.05;;;;;;;15.19;93.03711;95483.48;;;;
2019/06/16 01:37:58;;;;;;;7.15;6.05;;;;;;;15.19;93.03711;95483.48;;;;
2019/06/16 01:38:59;;;;;;;7.15;6.05;;;;;;;15.19;93.03711;95483.48;;;;
2019/06/16 01:40:00;;;;;;;7.15;6.05;;;;;;;15.19;93.03711;95483.48;;;;
2019/06/16 01:41:01;;;;;;;7.15;6.05;;;;;;;15.19;93.03711;95483.48;;;;
2019/06/16 01:42:02;;;;;;;7.15;6.05;;;;;;;15.19;93.03711;95483.48;;;;
2019/06/16 01:43:04;;;;;;;7.15;6.05;;;;;;;15.19;93.03711;95483.48;;;;
2019/06/16 01:44:05;;;;;;;7.15;6.05;;;;;;;15.19;93.03711;95483.48;;;;
2019/06/16 01:45:06;;;;;;;7.15;6.05;;;;;;;15.19;93.03711;95483.48;;;;
2019/06/16 01:46:07;;;;;;;7.15;6.05;;;;;;;15.19;93.03711;95483.48;;;;
2019/06/16 01:47:08;;;;;;;7.15;6.05;;;;;;;15.19;93.03711;95483.48;;;;
2019/06/16 01:48:09;;;;;;;7.15;6.05;;;;;;;15.19;93.03711;95483.48;;;;
2019/06/16 01:49:11;;;;;;;7.15;6.05;;;;;;;15.19;93.03711;95483.48;;;;
2019/06/16 01:50:12;;;;;;;7.15;6.05;;;;;;;15.19;93.03711;95483.48;;;;
2019/06/16 01:51:13;;;;;;;7.15;6.05;;;;;;;15.19;93.03711;95483.48;;;;
2019/06/16 01:52:15;;;;;;;7.15;6.05;;;;;;;15.19;93.03711;95483.48;;;;
2019/06/16 01:53:16;;;;;;;7.15;6.05;;;;;;;15.19;93.03711;95483.48;;;;
2019/06/16 01:54:17;;;;;;;7.15;6.05;;;;;;;15.19;93.03711;95483.48;;;;
2019/06/16 01:55:18;;;;;;;7.15;6.05;;;;;;;15.19;93.03711;95483.48;;;;
2019/06/16 01:56:19;;;;;;;7.15;6.05;;;;;;;15.19;93.03711;95483.48;;;;
2019/06/16 01:57:20;;;;;;;7.15;6.05;;;;;;;15.19;93.03711;95483.48;;;;
2019/06/16 01:58:21;;;;;;;7.15;6.05;;;;;;;15.19;93.03711;95483.48;;;;
2019/06/16 01:59:22;;;;;;;7.15;6.05;;;;;;;15.19;93.03711;95483.48;;;;
2019/06/16 02:00:23;;;;;;;7.15;6.05;;;;;;;15.19;93.03711;95483.48;;;;
2019/06/16 02:01:25;;;;;;;7.15;6.05;;;;;;;15.19;93.03711;95483.48;;;;
2019/06/16 02:02:26;;;;;;;7.15;6.05;;;;;;;15.19;93.03711;95483.48;;;;
2019/06/16 02:03:27;;;;;;;7.15;6.05;;;;;;;15.19;93.03711;95483.48;;;;
2019/06/16 02:04:28;;;;;;;7.15;6.05;;;;;;;15.19;93.03711;95483.48;;;;
2019/06/16 02:05:29;;;;;;;7.15;6.05;;;;;;;15.19;93.03711;95483.48;;;;
2019/06/16 02:06:30;;;;;;;7.15;6.05;;;;;;;15.19;93.03711;95483.48;;;;
2019/06/16 02:07:31;;;;;;;7.15;6.05;;;;;;;15.19;93.03711;95483.48;;;;
2019/06/16 02:08:33;;;;;;;7.15;6.05;;;;;;;15.19;93.03711;95483.48;;;;
2019/06/16 02:09:34;;;;;;;7.15;6.05;;;;;;;15.19;93.03711;95483.48;;;;
2019/06/16 02:10:35;;;;;;;7.15;6.05;;;;;;;15.19;93.03711;95483.48;;;;
2019/06/16 02:11:36;;;;;;;7.15;6.05;;;;;;;15.19;93.03711;95483.48;;;;
2019/06/16 02:12:37;;;;;;;7.15;6.05;;;;;;;15.19;93.03711;95483.48;;;;
2019/06/16 02:13:38;;;;;;;7.15;6.05;;;;;;;15.19;93.03711;95483.48;;;;
2019/06/16 02:14:40;;;;;;;7.15;6.05;;;;;;;15.19;93.03711;95483.48;;;;
2019/06/16 02:15:41;;;;;;;7.15;6.05;;;;;;;15.19;93.03711;95483.48;;;;
2019/06/16 02:16:42;;;;;;;7.15;6.05;;;;;;;15.19;93.03711;95483.48;;;;
2019/06/16 02:17:43;;;;;;;7.15;6.05;;;;;;;15.19;93.03711;95483.48;;;;
2019/06/16 03:08:47;;;;;;;9.75;5.3;;;;;;;14.84;96.34473;95470.5;;;;
2019/06/16 03:09:48;;;;;;;9.75;5.3;;;;;;;14.84;96.34473;95470.5;;;;
2019/06/16 03:10:49;;;;;;;9.75;5.3;;;;;;;14.84;96.34473;95470.5;;;;
2019/06/16 03:11:50;;;;;;;9.75;5.3;;;;;;;14.84;96.34473;95470.5;;;;
2019/06/16 03:12:51;;;;;;;9.75;5.3;;;;;;;14.84;96.34473;95470.5;;;;
2019/06/16 03:13:52;;;;;;;9.75;5.3;;;;;;;14.84;96.34473;95470.5;;;;
2019/06/16 03:14:53;;;;;;;9.75;5.3;;;;;;;14.84;96.34473;95470.5;;;;
2019/06/16 03:15:54;;;;;;;9.75;5.3;;;;;;;14.84;96.34473;95470.5;;;;
2019/06/16 03:16:56;;;;;;;9.75;5.3;;;;;;;14.84;96.34473;95470.5;;;;
2019/06/16 03:17:57;;;;;;;9.75;5.3;;;;;;;14.84;96.34473;95470.5;;;;
2019/06/16 03:18:58;;;;;;;9.75;5.3;;;;;;;14.84;96.34473;95470.5;;;;
2019/06/16 03:19:59;;;;;;;9.75;5.3;;;;;;;14.84;96.34473;95470.5;;;;
2019/06/16 03:21:00;;;;;;;9.75;5.3;;;;;;;14.84;96.34473;95470.5;;;;
2019/06/16 03:22:01;;;;;;;9.75;5.3;;;;;;;14.84;96.34473;95470.5;;;;
2019/06/16 03:23:02;;;;;;;9.75;5.3;;;;;;;14.84;96.34473;95470.5;;;;
2019/06/16 03:24:03;;;;;;;9.75;5.3;;;;;;;14.84;96.34473;95470.5;;;;
2019/06/16 03:25:04;;;;;;;9.75;5.3;;;;;;;14.84;96.34473;95470.5;;;;
2019/06/16 03:26:05;;;;;;;9.75;5.3;;;;;;;14.84;96.34473;95470.5;;;;
2019/06/16 03:27:06;;;;;;;9.75;5.3;;;;;;;14.84;96.34473;95470.5;;;;
2019/06/16 03:28:07;;;;;;;9.75;5.3;;;;;;;14.84;96.34473;95470.5;;;;
2019/06/16 03:29:08;;;;;;;9.75;5.3;;;;;;;14.84;96.34473;95470.5;;;;
2019/06/16 03:30:09;;;;;;;9.75;5.3;;;;;;;14.84;96.34473;95470.5;;;;
2019/06/16 03:31:11;;;;;;;9.75;5.3;;;;;;;14.84;96.34473;95470.5;;;;
2019/06/16 03:32:12;;;;;;;9.75;5.3;;;;;;;14.84;96.34473;95470.5;;;;
2019/06/16 03:33:13;;;;;;;9.75;5.3;;;;;;;14.84;96.34473;95470.5;;;;
2019/06/16 03:34:14;;;;;;;9.75;5.3;;;;;;;14.84;96.34473;95470.5;;;;
2019/06/16 03:35:15;;;;;;;9.75;5.3;;;;;;;14.84;96.34473;95470.5;;;;
2019/06/16 03:36:16;;;;;;;9.75;5.3;;;;;;;14.84;96.34473;95470.5;;;;
2019/06/16 03:37:17;;;;;;;9.75;5.3;;;;;;;14.84;96.34473;95470.5;;;;
2019/06/16 03:38:18;;;;;;;9.75;5.3;;;;;;;14.84;96.34473;95470.5;;;;
2019/06/16 03:39:19;;;;;;;9.75;5.3;;;;;;;14.84;96.34473;95470.5;;;;
2019/06/16 03:40:21;;;;;;;9.75;5.3;;;;;;;14.84;96.34473;95470.5;;;;
2019/06/16 03:41:22;;;;;;;9.75;5.3;;;;;;;14.84;96.34473;95470.5;;;;
2019/06/16 03:42:23;;;;;;;9.75;5.3;;;;;;;14.84;96.34473;95470.5;;;;
2019/06/16 03:43:24;;;;;;;9.75;5.3;;;;;;;14.84;96.34473;95470.5;;;;
2019/06/16 03:44:25;;;;;;;9.75;5.3;;;;;;;14.84;96.34473;95470.5;;;;
2019/06/16 03:45:26;;;;;;;9.75;5.3;;;;;;;14.84;96.34473;95470.5;;;;
2019/06/16 03:46:27;;;;;;;9.75;5.3;;;;;;;14.84;96.34473;95470.5;;;;
2019/06/16 03:47:28;;;;;;;9.75;5.3;;;;;;;14.84;96.34473;95470.5;;;;
2019/06/16 03:48:29;;;;;;;9.75;5.3;;;;;;;14.84;96.34473;95470.5;;;;
2019/06/16 03:49:30;;;;;;;9.75;5.3;;;;;;;14.84;96.34473;95470.5;;;;
2019/06/16 03:50:31;;;;;;;9.75;5.3;;;;;;;14.84;96.34473;95470.5;;;;
2019/06/16 03:51:32;;;;;;;9.75;5.3;;;;;;;14.84;96.34473;95470.5;;;;
2019/06/16 03:52:33;;;;;;;9.75;5.3;;;;;;;14.84;96.34473;95470.5;;;;
2019/06/16 05:37:40;;;;;;;3.9;2.45;;;;;;;15.33;98.61133;95599.91;;;;
2019/06/16 05:38:41;;;;;;;3.9;2.45;;;;;;;15.33;98.61133;95599.91;;;;
2019/06/16 05:39:42;;;;;;;3.9;2.45;;;;;;;15.33;98.61133;95599.91;;;;
2019/06/16 05:40:43;;;;;;;3.9;2.45;;;;;;;15.33;98.61133;95599.91;;;;
2019/06/16 05:41:44;;;;;;;3.9;2.45;;;;;;;15.33;98.61133;95599.91;;;;
2019/06/16 05:42:45;;;;;;;3.9;2.45;;;;;;;15.33;98.61133;95599.91;;;;
2019/06/16 05:43:46;;;;;;;3.9;2.45;;;;;;;15.33;98.61133;95599.91;;;;
2019/06/16 05:44:47;;;;;;;3.9;2.45;;;;;;;15.33;98.61133;95599.91;;;;
2019/06/16 05:45:48;;;;;;;3.9;2.45;;;;;;;15.33;98.61133;95599.91;;;;
2019/06/16 05:46:50;;;;;;;3.9;2.45;;;;;;;15.33;98.61133;95599.91;;;;
2019/06/16 05:47:51;;;;;;;3.9;2.45;;;;;;;15.33;98.61133;95599.91;;;;
2019/06/16 05:48:52;;;;;;;3.9;2.45;;;;;;;15.33;98.61133;95599.91;;;;
2019/06/16 05:49:53;;;;;;;3.9;2.45;;;;;;;15.33;98.61133;95599.91;;;;
2019/06/16 05:50:54;;;;;;;3.9;2.45;;;;;;;15.33;98.61133;95599.91;;;;
2019/06/16 05:51:55;;;;;;;3.9;2.45;;;;;;;15.33;98.61133;95599.91;;;;
2019/06/16 05:52:56;;;;;;;3.9;2.45;;;;;;;15.33;98.61133;95599.91;;;;
2019/06/16 05:53:57;;;;;;;3.9;2.45;;;;;;;15.33;98.61133;95599.91;;;;
2019/06/16 05:54:58;;;;;;;3.9;2.45;;;;;;;15.33;98.61133;95599.91;;;;
2019/06/16 05:55:59;;;;;;;3.9;2.45;;;;;;;15.33;98.61133;95599.91;;;;
2019/06/16 05:57:00;;;;;;;3.9;2.45;;;;;;;15.33;98.61133;95599.91;;;;
2019/06/16 05:58:01;;;;;;;3.9;2.45;;;;;;;15.33;98.61133;95599.91;;;;
2019/06/16 05:59:02;;;;;;;3.9;2.45;;;;;;;15.33;98.61133;95599.91;;;;
2019/06/16 06:00:03;;;;;;;3.9;2.45;;;;;;;15.33;98.61133;95599.91;;;;
2019/06/16 06:01:05;;;;;;;3.9;2.45;;;;;;;15.33;98.61133;95599.91;;;;
2019/06/16 06:02:06;;;;;;;3.9;2.45;;;;;;;15.33;98.61133;95599.91;;;;
2019/06/16 06:03:07;;;;;;;3.9;2.45;;;;;;;15.33;98.61133;95599.91;;;;
2019/06/16 06:04:08;;;;;;;3.9;2.45;;;;;;;15.33;98.61133;95599.91;;;;
2019/06/16 06:05:09;;;;;;;3.9;2.45;;;;;;;15.33;98.61133;95599.91;;;;
2019/06/16 06:06:10;;;;;;;3.9;2.45;;;;;;;15.33;98.61133;95599.91;;;;
2019/06/16 06:07:11;;;;;;;3.9;2.45;;;;;;;15.33;98.61133;95599.91;;;;
2019/06/16 06:08:12;;;;;;;3.9;2.45;;;;;;;15.33;98.61133;95599.91;;;;
2019/06/16 06:09:13;;;;;;;3.9;2.45;;;;;;;15.33;98.61133;95599.91;;;;
2019/06/16 06:10:14;;;;;;;3.9;2.45;;;;;;;15.33;98.61133;95599.91;;;;
2019/06/16 06:11:15;;;;;;;3.9;2.45;;;;;;;15.33;98.61133;95599.91;;;;
2019/06/16 06:12:16;;;;;;;3.9;2.45;;;;;;;15.33;98.61133;95599.91;;;;
2019/06/16 06:13:18;;;;;;;3.9;2.45;;;;;;;15.33;98.61133;95599.91;;;;
2019/06/16 06:14:19;;;;;;;3.9;2.45;;;;;;;15.33;98.61133;95599.91;;;;
2019/06/16 06:15:20;;;;;;;3.9;2.45;;;;;;;15.33;98.61133;95599.91;;;;
2019/06/16 06:16:21;;;;;;;3.9;2.45;;;;;;;15.33;98.61133;95599.91;;;;
2019/06/16 06:17:22;;;;;;;3.9;2.45;;;;;;;15.33;98.61133;95599.91;;;;
2019/06/16 06:18:23;;;;;;;3.9;2.45;;;;;;;15.33;98.61133;95599.91;;;;
2019/06/16 06:19:24;;;;;;;3.9;2.45;;;;;;;15.33;98.61133;95599.91;;;;
2019/06/16 06:20:25;;;;;;;2.4;2.2;;;;;;;17.87;95.66113;95616.78;;;;
2019/06/16 06:21:26;;;;;;;2.4;2.2;;;;;;;17.87;95.66113;95616.78;;;;
2019/06/16 06:22:27;;;;;;;2.4;2.2;;;;;;;17.87;95.66113;95616.78;;;;
2019/06/16 06:23:28;;;;;;;2.4;2.2;;;;;;;17.87;95.66113;95616.78;;;;
2019/06/16 06:24:29;;;;;;;2.4;2.2;;;;;;;17.87;95.66113;95616.78;;;;
2019/06/16 06:25:30;;;;;;;2.4;2.2;;;;;;;17.87;95.66113;95616.78;;;;
2019/06/16 06:26:31;;;;;;;2.4;2.2;;;;;;;17.87;95.66113;95616.78;;;;
2019/06/16 06:27:33;;;;;;;2.4;2.2;;;;;;;17.87;95.66113;95616.78;;;;
2019/06/16 06:28:34;;;;;;;2.4;2.2;;;;;;;17.87;95.66113;95616.78;;;;
2019/06/16 06:29:35;;;;;;;2.4;2.2;;;;;;;17.87;95.66113;95616.78;;;;
2019/06/16 06:30:36;;;;;;;2.85;2.3;;;;;;;18.84;94.11523;95627.19;;;;
2019/06/16 06:31:37;;;;;;;2.85;2.3;;;;;;;18.84;94.11523;95627.19;;;;
2019/06/16 06:32:38;;;;;;;2.85;2.3;;;;;;;18.84;94.11523;95627.19;;;;
2019/06/16 06:33:39;;;;;;;2.85;2.3;;;;;;;18.84;94.11523;95627.19;;;;
2019/06/16 06:34:40;;;;;;;2.85;2.3;;;;;;;18.84;94.11523;95627.19;;;;
2019/06/16 06:35:41;;;;;;;2.85;2.3;;;;;;;18.84;94.11523;95627.19;;;;
2019/06/16 06:36:42;;;;;;;2.85;2.3;;;;;;;18.84;94.11523;95627.19;;;;
2019/06/16 06:37:43;;;;;;;2.85;2.3;;;;;;;18.84;94.11523;95627.19;;;;
2019/06/16 06:38:44;;;;;;;2.85;2.3;;;;;;;18.84;94.11523;95627.19;;;;
2019/06/16 06:39:45;;;;;;;2.85;2.3;;;;;;;18.84;94.11523;95627.19;;;;
2019/06/16 06:40:46;;;;;;;2.85;2.3;;;;;;;18.84;94.11523;95627.19;;;;
2019/06/16 06:41:47;;;;;;;2.85;2.3;;;;;;;18.84;94.11523;95627.19;;;;
2019/06/16 06:42:49;;;;;;;2.85;2.3;;;;;;;18.84;94.11523;95627.19;;;;
2019/06/16 06:43:50;;;;;;;2.85;2.3;;;;;;;18.84;94.11523;95627.19;;;;
2019/06/16 06:44:51;;;;;;;2.85;2.3;;;;;;;18.84;94.11523;95627.19;;;;
2019/06/16 06:45:52;;;;;;;2.85;2.3;;;;;;;18.84;94.11523;95627.19;;;;
2019/06/16 06:46:53;;;;;;;2.85;2.3;;;;;;;18.84;94.11523;95627.19;;;;
2019/06/16 06:47:54;;;;;;;2.85;2.3;;;;;;;18.84;94.11523;95627.19;;;;
2019/06/16 06:48:55;;;;;;;2.85;2.3;;;;;;;18.84;94.11523;95627.19;;;;
2019/06/16 06:49:56;;;;;;;2.85;2.3;;;;;;;18.84;94.11523;95627.19;;;;
2019/06/16 06:50:57;;;;;;;2.85;2.3;;;;;;;18.84;94.11523;95627.19;;;;
2019/06/16 06:51:58;;;;;;;2.85;2.3;;;;;;;18.84;94.11523;95627.19;;;;
2019/06/16 06:52:59;;;;;;;2.85;2.3;;;;;;;18.84;94.11523;95627.19;;;;
2019/06/16 06:54:00;;;;;;;2.85;2.3;;;;;;;18.84;94.11523;95627.19;;;;
2019/06/16 06:55:01;;;;;;;2.85;2.3;;;;;;;18.84;94.11523;95627.19;;;;
2019/06/16 06:56:03;;;;;;;2.85;2.3;;;;;;;18.84;94.11523;95627.19;;;;
2019/06/16 06:57:04;;;;;;;2.85;2.3;;;;;;;18.84;94.11523;95627.19;;;;
2019/06/16 06:58:05;;;;;;;2.85;2.3;;;;;;;18.84;94.11523;95627.19;;;;
2019/06/16 06:59:06;;;;;;;2.85;2.3;;;;;;;18.84;94.11523;95627.19;;;;
2019/06/16 07:00:07;;;;;;;2.85;2.3;;;;;;;18.84;94.11523;95627.19;;;;
2019/06/16 07:01:08;;;;;;;2.85;2.3;;;;;;;18.84;94.11523;95627.19;;;;
2019/06/16 07:02:09;;;;;;;3.95;3.2;;;;;;;18.32;94.16699;95659.13;;;;
2019/06/16 07:03:10;;;;;;;3.95;3.2;;;;;;;18.32;94.16699;95659.13;;;;
2019/06/16 07:04:11;;;;;;;3.95;3.2;;;;;;;18.32;94.16699;95659.13;;;;
2019/06/16 07:05:12;;;;;;;3.95;3.2;;;;;;;18.32;94.16699;95659.13;;;;
2019/06/16 07:06:13;;;;;;;3.95;3.2;;;;;;;18.32;94.16699;95659.13;;;;
2019/06/16 07:07:14;;;;;;;3.95;3.2;;;;;;;18.32;94.16699;95659.13;;;;
2019/06/16 07:08:16;;;;;;;3.95;3.2;;;;;;;18.32;94.16699;95659.13;;;;
2019/06/16 07:09:17;;;;;;;3.95;3.2;;;;;;;18.32;94.16699;95659.13;;;;
2019/06/16 07:10:18;;;;;;;3.95;3.2;;;;;;;18.32;94.16699;95659.13;;;;
2019/06/16 07:11:19;;;;;;;3.95;3.2;;;;;;;18.32;94.16699;95659.13;;;;
2019/06/16 07:12:20;;;;;;;3.95;3.2;;;;;;;18.32;94.16699;95659.13;;;;
2019/06/16 07:13:21;;;;;;;3.95;3.2;;;;;;;18.32;94.16699;95659.13;;;;
2019/06/16 07:14:22;;;;;;;3.95;3.2;;;;;;;18.32;94.16699;95659.13;;;;
2019/06/16 07:15:23;;;;;;;3.95;3.2;;;;;;;18.32;94.16699;95659.13;;;;
2019/06/16 07:16:24;;;;;;;3.95;3.2;;;;;;;18.32;94.16699;95659.13;;;;
2019/06/16 07:17:25;;;;;;;3.95;3.2;;;;;;;18.32;94.16699;95659.13;;;;
2019/06/16 07:18:26;;;;;;;3.95;3.2;;;;;;;18.32;94.16699;95659.13;;;;
2019/06/16 07:19:28;;;;;;;3.95;3.2;;;;;;;18.32;94.16699;95659.13;;;;
2019/06/16 07:20:29;;;;;;;3.95;3.2;;;;;;;18.32;94.16699;95659.13;;;;
2019/06/16 07:21:30;;;;;;;3.95;3.2;;;;;;;18.32;94.16699;95659.13;;;;
2019/06/16 07:22:39;;;;;;;3.95;3.2;;;;;;;18.32;94.16699;95659.13;;;;
2019/06/16 07:23:41;;;;;;;5.450001;4.1;;;;;;;19.78;90.54102;95670.43;;;;
2019/06/16 07:24:42;;;;;;;5.450001;4.1;;;;;;;19.78;90.54102;95670.43;;;;
2019/06/16 07:25:43;;;;;;;5.450001;4.1;;;;;;;19.78;90.54102;95670.43;;;;
2019/06/16 07:26:44;;;;;;;5.450001;4.1;;;;;;;19.78;90.54102;95670.43;;;;
2019/06/16 07:27:45;;;;;;;5.450001;4.1;;;;;;;19.78;90.54102;95670.43;;;;
2019/06/16 07:28:46;;;;;;;5.450001;4.1;;;;;;;19.78;90.54102;95670.43;;;;
2019/06/16 07:29:47;;;;;;;5.450001;4.1;;;;;;;19.78;90.54102;95670.43;;;;
2019/06/16 07:30:48;;;;;;;5.450001;4.1;;;;;;;19.78;90.54102;95670.43;;;;
2019/06/16 07:31:49;;;;;;;5.450001;4.1;;;;;;;19.78;90.54102;95670.43;;;;
2019/06/16 07:32:50;;;;;;;5.450001;4.1;;;;;;;19.78;90.54102;95670.43;;;;
2019/06/16 07:33:51;;;;;;;5.450001;4.1;;;;;;;19.78;90.54102;95670.43;;;;
2019/06/16 07:34:52;;;;;;;5.450001;4.1;;;;;;;19.78;90.54102;95670.43;;;;
2019/06/16 07:35:53;;;;;;;5.450001;4.1;;;;;;;19.78;90.54102;95670.43;;;;
2019/06/16 07:36:54;;;;;;;5.450001;4.1;;;;;;;19.78;90.54102;95670.43;;;;
2019/06/16 07:37:55;;;;;;;5.450001;4.1;;;;;;;19.78;90.54102;95670.43;;;;
2019/06/16 07:38:56;;;;;;;5.450001;4.1;;;;;;;19.78;90.54102;95670.43;;;;
2019/06/16 07:39:57;;;;;;;5.450001;4.1;;;;;;;19.78;90.54102;95670.43;;;;
2019/06/16 07:40:58;;;;;;;5.450001;4.1;;;;;;;19.78;90.54102;95670.43;;;;
2019/06/16 07:41:59;;;;;;;5.450001;4.1;;;;;;;19.78;90.54102;95670.43;;;;
2019/06/16 07:43:01;;;;;;;5.450001;4.1;;;;;;;19.78;90.54102;95670.43;;;;
2019/06/16 07:44:02;;;;;;;5.450001;4.1;;;;;;;19.78;90.54102;95670.43;;;;
2019/06/16 07:45:03;;;;;;;4.399999;3.9;;;;;;;21.05;86.7168;95680.64;;;;
2019/06/16 07:46:04;;;;;;;4.399999;3.9;;;;;;;21.05;86.7168;95680.64;;;;
2019/06/16 07:47:05;;;;;;;4.399999;3.9;;;;;;;21.05;86.7168;95680.64;;;;
2019/06/16 07:48:06;;;;;;;4.399999;3.9;;;;;;;21.05;86.7168;95680.64;;;;
2019/06/16 07:49:07;;;;;;;4.399999;3.9;;;;;;;21.05;86.7168;95680.64;;;;
2019/06/16 07:50:08;;;;;;;4.399999;3.9;;;;;;;21.05;86.7168;95680.64;;;;
2019/06/16 07:51:09;;;;;;;4.399999;3.9;;;;;;;21.05;86.7168;95680.64;;;;
2019/06/16 07:52:10;;;;;;;4.399999;3.9;;;;;;;21.05;86.7168;95680.64;;;;
2019/06/16 07:53:11;;;;;;;4.399999;3.9;;;;;;;21.05;86.7168;95680.64;;;;
2019/06/16 07:54:12;;;;;;;4.399999;3.9;;;;;;;21.05;86.7168;95680.64;;;;
2019/06/16 07:55:13;;;;;;;4.399999;3.9;;;;;;;21.05;86.7168;95680.64;;;;
2019/06/16 07:56:14;;;;;;;4.399999;3.9;;;;;;;21.05;86.7168;95680.64;;;;
2019/06/16 07:57:16;;;;;;;4.399999;3.9;;;;;;;21.05;86.7168;95680.64;;;;
2019/06/16 07:58:17;;;;;;;4.399999;3.9;;;;;;;21.05;86.7168;95680.64;;;;
2019/06/16 07:59:18;;;;;;;4.399999;3.9;;;;;;;21.05;86.7168;95680.64;;;;
2019/06/16 08:00:19;;;;;;;4.399999;3.9;;;;;;;21.05;86.7168;95680.64;;;;
2019/06/16 08:01:20;;;;;;;4.399999;3.9;;;;;;;21.05;86.7168;95680.64;;;;
2019/06/16 08:02:21;;;;;;;4.399999;3.9;;;;;;;21.05;86.7168;95680.64;;;;
2019/06/16 08:03:22;;;;;;;4.399999;3.9;;;;;;;21.05;86.7168;95680.64;;;;
2019/06/16 08:04:23;;;;;;;4.399999;3.9;;;;;;;21.05;86.7168;95680.64;;;;
2019/06/16 08:05:24;;;;;;;4.399999;3.9;;;;;;;21.05;86.7168;95680.64;;;;
2019/06/16 08:06:25;;;;;;;4.4;4;;;;;;;22.33;83.41504;95691.67;;;;
2019/06/16 08:07:26;;;;;;;4.4;4;;;;;;;22.33;83.41504;95691.67;;;;
2019/06/16 08:08:27;;;;;;;4.4;4;;;;;;;22.33;83.41504;95691.67;;;;
2019/06/16 08:09:28;;;;;;;4.4;4;;;;;;;22.33;83.41504;95691.67;;;;
2019/06/16 08:10:30;;;;;;;4.4;4;;;;;;;22.33;83.41504;95691.67;;;;
2019/06/16 08:11:39;;;;;;;4.4;4;;;;;;;22.33;83.41504;95691.67;;;;
2019/06/16 08:12:40;;;;;;;4.4;4;;;;;;;22.33;83.41504;95691.67;;;;
2019/06/16 08:13:41;;;;;;;4.4;4;;;;;;;22.33;83.41504;95691.67;;;;
2019/06/16 08:14:42;;;;;;;4.4;4;;;;;;;22.33;83.41504;95691.67;;;;
2019/06/16 08:15:43;;;;;;;4.4;4;;;;;;;22.33;83.41504;95691.67;;;;
2019/06/16 08:16:44;;;;;;;4.4;4;;;;;;;22.33;83.41504;95691.67;;;;
2019/06/16 08:17:46;;;;;;;4.4;4;;;;;;;22.33;83.41504;95691.67;;;;
2019/06/16 08:18:47;;;;;;;4.4;4;;;;;;;22.33;83.41504;95691.67;;;;
2019/06/16 08:19:48;;;;;;;4.4;4;;;;;;;22.33;83.41504;95691.67;;;;
2019/06/16 08:20:49;;;;;;;4.4;4;;;;;;;22.33;83.41504;95691.67;;;;
2019/06/16 08:21:50;;;;;;;4.4;4;;;;;;;22.33;83.41504;95691.67;;;;
2019/06/16 08:22:51;;;;;;;4.4;4;;;;;;;22.33;83.41504;95691.67;;;;
2019/06/16 08:23:52;;;;;;;4.4;4;;;;;;;22.33;83.41504;95691.67;;;;
2019/06/16 08:24:53;;;;;;;4.4;4;;;;;;;22.33;83.41504;95691.67;;;;
2019/06/16 08:25:54;;;;;;;4.4;4;;;;;;;22.33;83.41504;95691.67;;;;
2019/06/16 08:26:55;;;;;;;4.4;4;;;;;;;22.33;83.41504;95691.67;;;;
2019/06/16 08:27:56;;;;;;;4.4;4;;;;;;;22.33;83.41504;95691.67;;;;
2019/06/16 08:28:58;;;;;;;4.4;4;;;;;;;22.33;83.41504;95691.67;;;;
2019/06/16 08:29:59;;;;;;;4.4;4;;;;;;;22.33;83.41504;95691.67;;;;
2019/06/16 08:31:00;;;;;;;4.4;4;;;;;;;22.33;83.41504;95691.67;;;;
2019/06/16 08:32:01;;;;;;;4.4;4;;;;;;;22.33;83.41504;95691.67;;;;
2019/06/16 08:33:02;;;;;;;4.4;4;;;;;;;22.33;83.41504;95691.67;;;;
2019/06/16 08:34:03;;;;;;;4.4;4;;;;;;;22.33;83.41504;95691.67;;;;
2019/06/16 08:35:04;;;;;;;4.4;4;;;;;;;22.33;83.41504;95691.67;;;;
2019/06/16 08:36:05;;;;;;;4.4;4;;;;;;;22.33;83.41504;95691.67;;;;
2019/06/16 08:37:06;;;;;;;4.4;4;;;;;;;22.33;83.41504;95691.67;;;;
2019/06/16 08:38:08;;;;;;;4.199999;3.85;;;;;;;24.09;75.1377;95705.69;;;;
2019/06/16 08:39:09;;;;;;;4.199999;3.85;;;;;;;24.09;75.1377;95705.69;;;;
2019/06/16 08:40:10;;;;;;;4.199999;3.85;;;;;;;24.09;75.1377;95705.69;;;;
2019/06/16 08:41:11;;;;;;;4.199999;3.85;;;;;;;24.09;75.1377;95705.69;;;;
2019/06/16 08:42:12;;;;;;;4.199999;3.85;;;;;;;24.09;75.1377;95705.69;;;;
2019/06/16 08:43:13;;;;;;;4.199999;3.85;;;;;;;24.09;75.1377;95705.69;;;;
2019/06/16 08:44:14;;;;;;;4.199999;3.85;;;;;;;24.09;75.1377;95705.69;;;;
2019/06/16 08:45:15;;;;;;;4.199999;3.85;;;;;;;24.09;75.1377;95705.69;;;;
2019/06/16 08:46:16;;;;;;;4.199999;3.85;;;;;;;24.09;75.1377;95705.69;;;;
2019/06/16 08:47:17;;;;;;;4.199999;3.85;;;;;;;24.09;75.1377;95705.69;;;;
2019/06/16 08:48:18;;;;;;;4.199999;3.85;;;;;;;24.09;75.1377;95705.69;;;;
2019/06/16 08:49:19;;;;;;;4.199999;3.85;;;;;;;24.09;75.1377;95705.69;;;;
2019/06/16 08:50:20;;;;;;;4.199999;3.85;;;;;;;24.09;75.1377;95705.69;;;;
2019/06/16 08:51:22;;;;;;;4.199999;3.85;;;;;;;24.09;75.1377;95705.69;;;;
2019/06/16 08:52:23;;;;;;;4.199999;3.85;;;;;;;24.09;75.1377;95705.69;;;;